Time,TemperatureF,DewpointF,PressureIn,WindDirection,WindDirectionDegrees,WindSpeedMPH,WindSpeedGustMPH,Humidity,HourlyPrecipIn,Conditions,Clouds,dailyrainin,SoftwareType,DateUTC
2013-06-18 00:00:00,75.9,75.0,30.03,WSW,250,0.0,0.0,97,0.00,,---,0.57,VWS V14.01,2013-06-18 04:00:00,
2013-06-18 00:03:00,75.9,75.0,30.03,WSW,250,0.0,0.0,97,0.00,,---,0.57,VWS V14.01,2013-06-18 04:03:00,
2013-06-18 00:04:00,76.0,75.1,30.03,WSW,250,0.0,0.0,97,0.00,,---,0.00,VWS V14.01,2013-06-18 04:04:00,
2013-06-18 00:09:00,76.0,75.1,30.03,WSW,250,0.0,0.0,97,0.00,,---,0.00,VWS V14.01,2013-06-18 04:09:00,
2013-06-18 00:14:00,76.0,75.1,30.03,WSW,250,0.0,1.0,97,0.00,,---,0.00,VWS V14.01,2013-06-18 04:14:00,
2013-06-18 00:19:00,76.2,75.3,30.03,WSW,250,0.0,3.0,97,0.00,,---,0.00,VWS V14.01,2013-06-18 04:19:00,
2013-06-18 00:24:00,76.5,75.3,30.03,WSW,250,0.0,3.0,96,0.00,,---,0.00,VWS V14.01,2013-06-18 04:24:00,
2013-06-18 00:29:00,76.8,74.9,30.03,WSW,250,2.0,3.0,94,0.00,,---,0.00,VWS V14.01,2013-06-18 04:29:00,
2013-06-18 00:30:00,76.9,75.1,30.03,WSW,250,1.0,3.0,94,0.00,,---,0.00,VWS V14.01,2013-06-18 04:30:00,
2013-06-18 00:34:00,77.1,74.9,30.03,WSW,250,0.0,2.0,93,0.00,,---,0.00,VWS V14.01,2013-06-18 04:34:00,
2013-06-18 00:39:00,77.3,75.1,30.03,WSW,250,1.0,2.0,93,0.00,,---,0.00,VWS V14.01,2013-06-18 04:39:00,
2013-06-18 00:44:00,77.4,74.9,30.02,WSW,250,0.0,2.0,92,0.00,,---,0.00,VWS V14.01,2013-06-18 04:44:00,
2013-06-18 00:49:00,77.5,74.7,30.02,WSW,250,0.0,2.0,91,0.00,,---,0.00,VWS V14.01,2013-06-18 04:49:00,
2013-06-18 00:54:00,77.2,74.7,30.02,WSW,250,0.0,2.0,92,0.00,,---,0.00,VWS V14.01,2013-06-18 04:54:00,
2013-06-18 00:59:00,76.9,74.4,30.02,WSW,250,0.0,2.0,92,0.00,,---,0.00,VWS V14.01,2013-06-18 04:59:00,
2013-06-18 01:00:00,76.8,74.3,30.02,WSW,250,0.0,2.0,92,0.00,,---,0.00,VWS V14.01,2013-06-18 05:00:00,
2013-06-18 01:30:00,76.7,75.8,30.03,WSW,250,0.0,3.0,97,0.00,,---,0.00,VWS V14.01,2013-06-18 05:30:00,
2013-06-18 02:00:00,77.6,76.1,30.01,WSW,247,0.0,4.0,95,0.00,,---,0.00,VWS V14.01,2013-06-18 06:00:00,
2013-06-18 02:07:00,77.6,76.1,30.01,WSW,247,1.0,1.0,95,0.00,,---,0.00,VWS V14.01,2013-06-18 06:07:00,
2013-06-18 02:12:00,77.6,76.1,30.01,WSW,247,0.0,1.0,95,0.00,,---,0.00,VWS V14.01,2013-06-18 06:12:00,
2013-06-18 02:17:00,77.6,76.1,30.01,WSW,247,0.0,1.0,95,0.00,,---,0.00,VWS V14.01,2013-06-18 06:17:00,
2013-06-18 02:22:00,77.7,76.2,30.01,WSW,247,1.0,3.0,95,0.00,,---,0.00,VWS V14.01,2013-06-18 06:22:00,
2013-06-18 02:27:00,77.8,76.3,30.00,WSW,247,0.0,4.0,95,0.00,,---,0.00,VWS V14.01,2013-06-18 06:27:00,
2013-06-18 02:30:00,77.9,76.4,30.00,WSW,247,0.0,4.0,95,0.00,,---,0.00,VWS V14.01,2013-06-18 06:30:00,
2013-06-18 02:32:00,77.9,76.4,30.00,WSW,247,1.0,3.0,95,0.00,,---,0.00,VWS V14.01,2013-06-18 06:32:00,
2013-06-18 02:37:00,78.0,76.5,30.00,WSW,247,0.0,3.0,95,0.00,,---,0.00,VWS V14.01,2013-06-18 06:37:00,
2013-06-18 02:42:00,77.9,76.4,30.00,WSW,247,0.0,3.0,95,0.00,,---,0.00,VWS V14.01,2013-06-18 06:42:00,
2013-06-18 02:47:00,77.5,76.0,29.99,WSW,247,0.0,3.0,95,0.00,,---,0.00,VWS V14.01,2013-06-18 06:47:00,
2013-06-18 02:52:00,77.2,75.7,29.99,WSW,247,0.0,3.0,95,0.00,,---,0.00,VWS V14.01,2013-06-18 06:52:00,
2013-06-18 02:57:00,77.0,75.8,29.99,WSW,247,0.0,3.0,96,0.00,,---,0.00,VWS V14.01,2013-06-18 06:57:00,
2013-06-18 03:00:00,76.9,75.7,29.99,WSW,247,1.0,3.0,96,0.00,,---,0.00,VWS V14.01,2013-06-18 07:00:00,
2013-06-18 03:02:00,76.9,75.7,29.99,WSW,247,0.0,1.0,96,0.00,,---,0.00,VWS V14.01,2013-06-18 07:02:00,
2013-06-18 03:07:00,77.0,76.1,29.99,WSW,247,0.0,3.0,97,0.00,,---,0.00,VWS V14.01,2013-06-18 07:07:00,
2013-06-18 03:12:00,77.2,76.3,29.99,WSW,247,1.0,3.0,97,0.00,,---,0.00,VWS V14.01,2013-06-18 07:12:00,
2013-06-18 03:17:00,77.4,76.5,29.99,WSW,247,2.0,4.0,97,0.00,,---,0.00,VWS V14.01,2013-06-18 07:17:00,
2013-06-18 03:22:00,77.6,76.7,29.99,WSW,247,3.0,4.0,97,0.00,,---,0.00,VWS V14.01,2013-06-18 07:22:00,
2013-06-18 03:27:00,77.6,76.7,29.99,WSW,247,4.0,4.0,97,0.00,,---,0.00,VWS V14.01,2013-06-18 07:27:00,
2013-06-18 03:30:00,77.6,76.4,29.99,WSW,244,3.0,5.0,96,0.00,,---,0.00,VWS V14.01,2013-06-18 07:30:00,
2013-06-18 03:32:00,77.6,76.4,29.99,WSW,243,4.0,5.0,96,0.00,,---,0.00,VWS V14.01,2013-06-18 07:32:00,
2013-06-18 03:37:00,77.6,76.4,29.98,WSW,240,0.0,5.0,96,0.00,,---,0.00,VWS V14.01,2013-06-18 07:37:00,
2013-06-18 03:42:00,77.4,75.9,29.99,WSW,240,0.0,5.0,95,0.00,,---,0.00,VWS V14.01,2013-06-18 07:42:00,
2013-06-18 03:47:00,77.2,75.3,29.98,WSW,240,0.0,5.0,94,0.00,,---,0.00,VWS V14.01,2013-06-18 07:47:00,
2013-06-18 03:52:00,77.0,75.1,29.98,WSW,240,0.0,5.0,94,0.00,,---,0.00,VWS V14.01,2013-06-18 07:52:00,
2013-06-18 03:57:00,76.8,74.9,29.98,WSW,240,1.0,5.0,94,0.00,,---,0.00,VWS V14.01,2013-06-18 07:57:00,
2013-06-18 04:00:00,76.7,75.2,29.98,WSW,240,0.0,5.0,95,0.00,,---,0.00,VWS V14.01,2013-06-18 08:00:00,
2013-06-18 04:02:00,76.6,75.1,29.98,WSW,240,0.0,1.0,95,0.00,,---,0.00,VWS V14.01,2013-06-18 08:02:00,
2013-06-18 04:07:00,76.5,75.3,29.98,WSW,240,1.0,2.0,96,0.00,,---,0.00,VWS V14.01,2013-06-18 08:07:00,
2013-06-18 04:12:00,76.4,75.5,29.97,WSW,240,2.0,4.0,97,0.00,,---,0.00,VWS V14.01,2013-06-18 08:12:00,
2013-06-18 04:17:00,76.4,75.5,29.97,WSW,240,3.0,4.0,97,0.00,,---,0.00,VWS V14.01,2013-06-18 08:17:00,
2013-06-18 04:23:00,76.3,75.4,29.97,WSW,240,3.0,4.0,97,0.00,,---,0.00,VWS V14.01,2013-06-18 08:23:00,
2013-06-18 04:28:00,76.1,75.2,29.97,WSW,247,4.0,4.0,97,0.00,,---,0.00,VWS V14.01,2013-06-18 08:28:00,
2013-06-18 04:30:00,76.1,74.9,29.98,WSW,258,2.0,5.0,96,0.00,,---,0.00,VWS V14.01,2013-06-18 08:30:00,
2013-06-18 04:33:00,76.0,74.8,29.98,WSW,258,2.0,5.0,96,0.00,,---,0.00,VWS V14.01,2013-06-18 08:33:00,
2013-06-18 04:38:00,76.0,74.8,29.98,West,259,1.0,5.0,96,0.00,,---,0.00,VWS V14.01,2013-06-18 08:38:00,
2013-06-18 04:43:00,76.0,74.8,29.98,West,259,0.0,5.0,96,0.00,,---,0.00,VWS V14.01,2013-06-18 08:43:00,
2013-06-18 04:48:00,75.9,74.7,29.98,West,259,1.0,5.0,96,0.00,,---,0.00,VWS V14.01,2013-06-18 08:48:00,
2013-06-18 04:53:00,75.9,75.0,29.98,West,259,0.0,5.0,97,0.00,,---,0.00,VWS V14.01,2013-06-18 08:53:00,
2013-06-18 04:58:00,75.9,75.0,29.98,West,259,1.0,5.0,97,0.00,,---,0.00,VWS V14.01,2013-06-18 08:58:00,
2013-06-18 05:00:00,75.8,74.9,29.98,West,259,1.0,5.0,97,0.00,,---,0.00,VWS V14.01,2013-06-18 09:00:00,
2013-06-18 05:03:00,75.8,74.9,29.98,West,259,1.0,1.0,97,0.00,,---,0.00,VWS V14.01,2013-06-18 09:03:00,
2013-06-18 05:08:00,75.8,74.9,29.98,West,259,1.0,3.0,97,0.00,,---,0.00,VWS V14.01,2013-06-18 09:08:00,
2013-06-18 05:13:00,75.8,74.9,29.98,West,259,1.0,3.0,97,0.00,,---,0.00,VWS V14.01,2013-06-18 09:13:00,
2013-06-18 05:18:00,75.8,74.9,29.98,West,259,0.0,3.0,97,0.00,,---,0.00,VWS V14.01,2013-06-18 09:18:00,
2013-06-18 05:23:00,75.8,74.6,29.98,West,259,0.0,3.0,96,0.00,,---,0.00,VWS V14.01,2013-06-18 09:23:00,
2013-06-18 05:28:00,75.8,74.6,29.98,West,259,0.0,3.0,96,0.00,,---,0.00,VWS V14.01,2013-06-18 09:28:00,
2013-06-18 05:30:00,75.7,74.5,29.98,West,259,0.0,3.0,96,0.00,,---,0.00,VWS V14.01,2013-06-18 09:30:00,
2013-06-18 05:33:00,75.6,74.4,29.98,West,259,0.0,1.0,96,0.00,,---,0.00,VWS V14.01,2013-06-18 09:33:00,
2013-06-18 06:00:00,75.8,74.9,29.98,West,259,1.0,5.0,97,0.00,,---,0.00,VWS V14.01,2013-06-18 10:00:00,
2013-06-18 06:30:00,75.7,74.5,29.98,West,259,0.0,3.0,96,0.00,,---,0.00,VWS V14.01,2013-06-18 10:30:00,
2013-06-18 06:32:00,75.0,74.4,30.00,West,259,2.0,2.0,98,0.00,,---,0.00,VWS V14.01,2013-06-18 10:32:00,
2013-06-18 06:37:00,75.1,74.5,30.00,West,259,0.0,2.0,98,0.00,,---,0.00,VWS V14.01,2013-06-18 10:37:00,
2013-06-18 06:43:00,75.0,74.1,30.00,West,259,0.0,2.0,97,0.00,,---,0.00,VWS V14.01,2013-06-18 10:43:00,
2013-06-18 06:48:00,74.8,73.9,30.00,West,259,0.0,2.0,97,0.00,,---,0.00,VWS V14.01,2013-06-18 10:48:00,
2013-06-18 06:53:00,74.7,74.1,30.00,West,259,0.0,2.0,98,0.00,,---,0.00,VWS V14.01,2013-06-18 10:53:00,
2013-06-18 06:58:00,74.8,74.2,30.00,West,259,0.0,2.0,98,0.00,,---,0.00,VWS V14.01,2013-06-18 10:58:00,
2013-06-18 07:00:00,74.8,74.2,30.01,West,259,0.0,2.0,98,0.00,,---,0.00,VWS V14.01,2013-06-18 11:00:00,
2013-06-18 07:03:00,74.9,74.3,30.01,West,259,0.0,1.0,98,0.00,,---,0.00,VWS V14.01,2013-06-18 11:03:00,
2013-06-18 07:08:00,75.1,74.5,30.01,West,259,0.0,1.0,98,0.00,,---,0.00,VWS V14.01,2013-06-18 11:08:00,
2013-06-18 07:13:00,75.2,74.6,30.02,West,259,1.0,1.0,98,0.00,,---,0.00,VWS V14.01,2013-06-18 11:13:00,
2013-06-18 07:18:00,75.4,74.8,30.02,West,259,0.0,1.0,98,0.00,,---,0.00,VWS V14.01,2013-06-18 11:18:00,
2013-06-18 07:23:00,75.6,74.7,30.02,West,259,0.0,1.0,97,0.00,,---,0.00,VWS V14.01,2013-06-18 11:23:00,
2013-06-18 07:28:00,75.8,74.9,30.02,West,259,0.0,1.0,97,0.00,,---,0.00,VWS V14.01,2013-06-18 11:28:00,
2013-06-18 07:30:00,75.9,75.0,30.02,West,259,0.0,1.0,97,0.00,,---,0.00,VWS V14.01,2013-06-18 11:30:00,
2013-06-18 07:33:00,76.1,75.2,30.02,West,259,0.0,1.0,97,0.00,,---,0.00,VWS V14.01,2013-06-18 11:33:00,
2013-06-18 07:38:00,76.4,75.5,30.02,West,259,1.0,1.0,97,0.00,,---,0.00,VWS V14.01,2013-06-18 11:38:00,
2013-06-18 07:43:00,76.7,75.5,30.02,West,259,1.0,5.0,96,0.00,,---,0.00,VWS V14.01,2013-06-18 11:43:00,
2013-06-18 07:48:00,77.0,75.8,30.02,West,259,1.0,5.0,96,0.00,,---,0.00,VWS V14.01,2013-06-18 11:48:00,
2013-06-18 07:53:00,77.3,75.8,30.02,West,259,0.0,5.0,95,0.00,,---,0.00,VWS V14.01,2013-06-18 11:53:00,
2013-06-18 07:58:00,77.6,76.1,30.03,West,259,0.0,5.0,95,0.00,,---,0.00,VWS V14.01,2013-06-18 11:58:00,
2013-06-18 08:00:00,77.7,76.2,30.03,West,259,1.0,5.0,95,0.00,,---,0.00,VWS V14.01,2013-06-18 12:00:00,
2013-06-18 08:03:00,77.9,76.4,30.03,West,259,2.0,2.0,95,0.00,,---,0.00,VWS V14.01,2013-06-18 12:03:00,
2013-06-18 08:08:00,78.2,76.3,30.03,West,259,0.0,2.0,94,0.00,,---,0.00,VWS V14.01,2013-06-18 12:08:00,
2013-06-18 08:13:00,78.5,76.6,30.03,West,259,1.0,2.0,94,0.00,,---,0.00,VWS V14.01,2013-06-18 12:13:00,
2013-06-18 08:18:00,78.8,76.3,30.03,West,259,0.0,2.0,92,0.00,,---,0.00,VWS V14.01,2013-06-18 12:18:00,
2013-06-18 08:23:00,79.1,76.6,30.03,West,259,1.0,4.0,92,0.00,,---,0.00,VWS V14.01,2013-06-18 12:23:00,
2013-06-18 08:28:00,79.4,76.9,30.03,West,259,0.0,4.0,92,0.00,,---,0.00,VWS V14.01,2013-06-18 12:28:00,
2013-06-18 08:30:00,79.5,77.0,30.03,West,259,1.0,4.0,92,0.00,,---,0.00,VWS V14.01,2013-06-18 12:30:00,
2013-06-18 08:33:00,79.7,77.2,30.03,West,259,1.0,2.0,92,0.00,,---,0.00,VWS V14.01,2013-06-18 12:33:00,
2013-06-18 08:39:00,79.9,77.4,30.03,West,259,2.0,5.0,92,0.00,,---,0.00,VWS V14.01,2013-06-18 12:39:00,
2013-06-18 08:44:00,80.4,77.2,30.03,West,259,1.0,5.0,90,0.00,,---,0.00,VWS V14.01,2013-06-18 12:44:00,
2013-06-18 08:49:00,80.9,77.7,30.03,West,259,0.0,5.0,90,0.00,,---,0.00,VWS V14.01,2013-06-18 12:49:00,
2013-06-18 08:54:00,81.3,77.8,30.03,West,259,2.0,5.0,89,0.00,,---,0.00,VWS V14.01,2013-06-18 12:54:00,
2013-06-18 08:59:00,81.4,77.2,30.04,WSW,257,1.0,5.0,87,0.00,,---,0.00,VWS V14.01,2013-06-18 12:59:00,
2013-06-18 09:00:00,81.4,77.2,30.04,WSW,257,2.0,5.0,87,0.00,,---,0.00,VWS V14.01,2013-06-18 13:00:00,
2013-06-18 09:04:00,81.7,77.5,30.04,WSW,252,2.0,5.0,87,0.00,,---,0.00,VWS V14.01,2013-06-18 13:04:00,
2013-06-18 09:09:00,81.8,77.2,30.04,WSW,249,1.0,5.0,86,0.00,,---,0.00,VWS V14.01,2013-06-18 13:09:00,
2013-06-18 09:14:00,82.1,77.5,30.04,WSW,249,3.0,5.0,86,0.00,,---,0.00,VWS V14.01,2013-06-18 13:14:00,
2013-06-18 09:19:00,82.5,77.5,30.03,WSW,248,4.0,5.0,85,0.00,,---,0.00,VWS V14.01,2013-06-18 13:19:00,
2013-06-18 09:24:00,82.9,77.6,30.03,WSW,248,0.0,5.0,84,0.00,,---,0.00,VWS V14.01,2013-06-18 13:24:00,
2013-06-18 09:29:00,83.3,78.0,30.03,WSW,248,1.0,5.0,84,0.00,,---,0.00,VWS V14.01,2013-06-18 13:29:00,
2013-06-18 09:30:00,83.3,78.0,30.03,WSW,248,0.0,5.0,84,0.00,,---,0.00,VWS V14.01,2013-06-18 13:30:00,
2013-06-18 09:34:00,83.5,77.4,30.03,West,272,2.0,5.0,82,0.00,,---,0.00,VWS V14.01,2013-06-18 13:34:00,
2013-06-18 09:40:00,83.5,78.5,30.03,West,272,1.0,5.0,85,0.00,,---,0.00,VWS V14.01,2013-06-18 13:40:00,
2013-06-18 09:49:00,84.3,77.1,30.03,WSW,250,0.0,0.0,79,0.00,,---,0.00,VWS V14.01,2013-06-18 13:49:00,
2013-06-18 09:54:00,84.5,77.3,30.03,West,261,5.0,7.0,79,0.00,,---,0.00,VWS V14.01,2013-06-18 13:54:00,
2013-06-18 09:59:00,84.4,77.2,30.03,SW,232,2.0,9.0,79,0.00,,---,0.00,VWS V14.01,2013-06-18 13:59:00,
2013-06-18 10:00:00,84.5,77.7,30.03,SW,232,0.0,9.0,80,0.00,,---,0.00,VWS V14.01,2013-06-18 14:00:00,
2013-06-18 10:04:00,85.0,77.0,30.03,SW,221,2.0,5.0,77,0.00,,---,0.00,VWS V14.01,2013-06-18 14:04:00,
2013-06-18 10:09:00,85.1,75.9,30.03,West,261,8.0,9.0,74,0.00,,---,0.00,VWS V14.01,2013-06-18 14:09:00,
2013-06-18 10:14:00,84.9,76.9,30.03,WSW,252,3.0,9.0,77,0.00,,---,0.00,VWS V14.01,2013-06-18 14:14:00,
2013-06-18 10:19:00,85.2,76.8,30.03,WSW,255,4.0,9.0,76,0.00,,---,0.00,VWS V14.01,2013-06-18 14:19:00,
2013-06-18 10:24:00,85.4,77.0,30.03,SW,225,3.0,9.0,76,0.00,,---,0.00,VWS V14.01,2013-06-18 14:24:00,
2013-06-18 10:29:00,85.8,77.0,30.03,SW,236,4.0,9.0,75,0.00,,---,0.00,VWS V14.01,2013-06-18 14:29:00,
2013-06-18 10:30:00,85.8,76.6,30.03,SW,230,5.0,9.0,74,0.00,,---,0.00,VWS V14.01,2013-06-18 14:30:00,
2013-06-18 10:34:00,86.0,77.6,30.03,West,268,2.0,5.0,76,0.00,,---,0.00,VWS V14.01,2013-06-18 14:34:00,
2013-06-18 10:39:00,85.9,77.1,30.03,West,260,3.0,8.0,75,0.00,,---,0.00,VWS V14.01,2013-06-18 14:39:00,
2013-06-18 10:44:00,85.6,76.8,30.03,West,265,4.0,8.0,75,0.00,,---,0.00,VWS V14.01,2013-06-18 14:44:00,
2013-06-18 10:50:00,86.0,77.6,30.03,WSW,250,3.0,8.0,76,0.00,,---,0.00,VWS V14.01,2013-06-18 14:50:00,
2013-06-18 10:55:00,86.3,76.6,30.03,SW,214,1.0,8.0,73,0.00,,---,0.00,VWS V14.01,2013-06-18 14:55:00,
2013-06-18 11:00:00,86.5,77.2,30.03,West,267,0.0,8.0,74,0.00,,---,0.00,VWS V14.01,2013-06-18 15:00:00,
2013-06-18 11:05:00,86.8,77.9,30.03,WSW,238,2.0,5.0,75,0.00,,---,0.00,VWS V14.01,2013-06-18 15:05:00,
2013-06-18 11:10:00,86.3,77.0,30.03,WSW,246,8.0,9.0,74,0.00,,---,0.00,VWS V14.01,2013-06-18 15:10:00,
2013-06-18 11:15:00,86.6,77.7,30.03,WNW,283,4.0,9.0,75,0.00,,---,0.00,VWS V14.01,2013-06-18 15:15:00,
2013-06-18 11:20:00,87.0,77.7,30.03,West,268,2.0,9.0,74,0.00,,---,0.00,VWS V14.01,2013-06-18 15:20:00,
2013-06-18 11:25:00,87.2,77.5,30.04,SW,232,1.0,9.0,73,0.00,,---,0.00,VWS V14.01,2013-06-18 15:25:00,
2013-06-18 11:30:00,86.9,76.8,30.03,West,265,5.0,5.0,72,0.00,,---,0.00,VWS V14.01,2013-06-18 15:30:00,
2013-06-18 11:35:00,86.8,76.3,30.03,West,278,3.0,6.0,71,0.00,,---,0.00,VWS V14.01,2013-06-18 15:35:00,
2013-06-18 11:40:00,87.3,76.8,30.03,SW,234,2.0,7.0,71,0.00,,---,0.00,VWS V14.01,2013-06-18 15:40:00,
2013-06-18 11:45:00,87.4,76.8,30.03,WNW,295,6.0,9.0,71,0.00,,---,0.00,VWS V14.01,2013-06-18 15:45:00,
2013-06-18 11:50:00,87.5,76.1,30.03,West,269,7.0,9.0,69,0.00,,---,0.00,VWS V14.01,2013-06-18 15:50:00,
2013-06-18 11:55:00,87.5,76.5,30.03,WSW,247,5.0,9.0,70,0.00,,---,0.00,VWS V14.01,2013-06-18 15:55:00,
2013-06-18 12:00:00,86.5,77.2,30.03,West,267,0.0,8.0,74,0.00,,---,0.00,VWS V14.01,2013-06-18 16:00:00,
2013-06-18 12:02:00,88.1,76.7,30.03,WNW,283,4.0,9.0,69,0.00,,---,0.00,VWS V14.01,2013-06-18 16:02:00,
2013-06-18 12:07:00,88.4,77.4,30.03,South,185,4.0,9.0,70,0.00,,---,0.00,VWS V14.01,2013-06-18 16:07:00,
2013-06-18 12:12:00,88.5,76.6,30.03,WSW,256,5.0,9.0,68,0.00,,---,0.00,VWS V14.01,2013-06-18 16:12:00,
2013-06-18 12:17:00,88.4,76.5,30.03,West,279,5.0,9.0,68,0.00,,---,0.00,VWS V14.01,2013-06-18 16:17:00,
2013-06-18 12:22:00,88.4,76.9,30.02,SW,220,2.0,9.0,69,0.00,,---,0.00,VWS V14.01,2013-06-18 16:22:00,
2013-06-18 12:27:00,89.1,78.0,30.03,SW,215,4.0,9.0,70,0.00,,---,0.00,VWS V14.01,2013-06-18 16:27:00,
2013-06-18 12:30:00,89.3,76.9,30.03,SW,225,5.0,9.0,67,0.00,,---,0.00,VWS V14.01,2013-06-18 16:30:00,
2013-06-18 12:32:00,89.3,76.5,30.03,West,270,3.0,9.0,66,0.00,,---,0.00,VWS V14.01,2013-06-18 16:32:00,
2013-06-18 12:37:00,88.6,76.2,30.02,WNW,294,6.0,9.0,67,0.00,,---,0.00,VWS V14.01,2013-06-18 16:37:00,
2013-06-18 12:42:00,88.6,77.1,30.02,WNW,290,8.0,9.0,69,0.00,,---,0.00,VWS V14.01,2013-06-18 16:42:00,
2013-06-18 12:47:00,88.8,76.4,30.02,WSW,246,2.0,9.0,67,0.00,,---,0.00,VWS V14.01,2013-06-18 16:47:00,
2013-06-18 12:52:00,88.7,75.9,30.02,West,269,5.0,9.0,66,0.00,,---,0.00,VWS V14.01,2013-06-18 16:52:00,
2013-06-18 12:57:00,88.7,76.3,30.01,NW,310,5.0,9.0,67,0.00,,---,0.00,VWS V14.01,2013-06-18 16:57:00,
2013-06-18 13:00:00,88.9,75.2,30.01,WNW,290,8.0,10.0,64,0.00,,---,0.00,VWS V14.01,2013-06-18 17:00:00,
2013-06-18 13:02:00,89.0,75.2,30.01,West,270,4.0,8.0,64,0.00,,---,0.00,VWS V14.01,2013-06-18 17:02:00,
2013-06-18 13:08:00,89.6,76.3,30.01,SW,233,4.0,4.0,65,0.00,,---,0.00,VWS V14.01,2013-06-18 17:08:00,
2013-06-18 13:14:00,89.8,76.0,30.01,WNW,286,3.0,7.0,64,0.00,,---,0.00,VWS V14.01,2013-06-18 17:14:00,
2013-06-18 13:19:00,89.9,76.6,30.01,WSW,244,4.0,8.0,65,0.00,,---,0.00,VWS V14.01,2013-06-18 17:19:00,
2013-06-18 13:24:00,90.5,74.7,30.00,SW,225,1.0,8.0,60,0.00,,---,0.00,VWS V14.01,2013-06-18 17:24:00,
2013-06-18 13:29:00,90.9,75.6,30.00,SW,222,3.0,8.0,61,0.00,,---,0.00,VWS V14.01,2013-06-18 17:29:00,
2013-06-18 13:30:00,90.9,75.1,30.00,SW,219,1.0,8.0,60,0.00,,---,0.00,VWS V14.01,2013-06-18 17:30:00,
2013-06-18 13:34:00,90.9,76.1,29.99,WNW,287,6.0,9.0,62,0.00,,---,0.00,VWS V14.01,2013-06-18 17:34:00,
2013-06-18 13:39:00,90.6,75.8,30.00,WSW,252,3.0,9.0,62,0.00,,---,0.00,VWS V14.01,2013-06-18 17:39:00,
2013-06-18 13:44:00,90.8,75.5,30.00,West,277,4.0,9.0,61,0.00,,---,0.00,VWS V14.01,2013-06-18 17:44:00,
2013-06-18 13:49:00,91.2,76.8,30.00,SSW,213,7.0,9.0,63,0.00,,---,0.00,VWS V14.01,2013-06-18 17:49:00,
2013-06-18 13:54:00,91.3,76.0,30.00,WNW,288,4.0,9.0,61,0.00,,---,0.00,VWS V14.01,2013-06-18 17:54:00,
2013-06-18 13:59:00,91.2,76.4,30.00,West,269,7.0,13.0,62,0.00,,---,0.00,VWS V14.01,2013-06-18 17:59:00,
2013-06-18 14:00:00,91.0,75.7,30.00,West,261,14.0,16.0,61,0.00,,---,0.00,VWS V14.01,2013-06-18 18:00:00,
2013-06-18 14:04:00,87.7,75.4,30.00,WNW,288,6.0,14.0,67,0.00,,---,0.00,VWS V14.01,2013-06-18 18:04:00,
2013-06-18 14:09:00,85.5,74.6,30.00,WNW,286,7.0,14.0,70,0.00,,---,0.00,VWS V14.01,2013-06-18 18:09:00,
2013-06-18 14:30:00,85.2,76.8,29.99,WNW,292,6.0,17.0,76,0.00,,---,0.00,VWS V14.01,2013-06-18 18:30:00,
2013-06-18 15:00:00,85.6,72.5,29.98,WNW,292,2.0,6.0,65,0.00,,---,0.00,VWS V14.01,2013-06-18 19:00:00,
2013-06-18 15:30:00,88.9,75.6,29.97,West,270,2.0,6.0,65,0.00,,---,0.00,VWS V14.01,2013-06-18 19:30:00,
2013-06-18 16:00:00,85.6,72.5,29.98,WNW,292,2.0,6.0,65,0.00,,---,0.00,VWS V14.01,2013-06-18 20:00:00,
2013-06-18 16:20:00,86.1,76.0,29.96,SW,220,2.0,2.0,72,0.00,,---,0.00,VWS V14.01,2013-06-18 20:20:00,
2013-06-18 16:25:00,85.6,75.5,29.96,South,183,4.0,7.0,72,0.00,,---,0.00,VWS V14.01,2013-06-18 20:25:00,
2013-06-18 16:30:00,85.6,75.1,29.95,South,183,2.0,6.0,71,0.00,,---,0.00,VWS V14.01,2013-06-18 20:30:00,
2013-06-18 16:35:00,86.1,75.2,29.95,SSW,192,4.0,6.0,70,0.00,,---,0.00,VWS V14.01,2013-06-18 20:35:00,
2013-06-18 16:40:00,86.7,75.8,29.95,South,182,5.0,6.0,70,0.00,,---,0.00,VWS V14.01,2013-06-18 20:40:00,
2013-06-18 16:45:00,87.3,77.6,29.95,SE,142,6.0,6.0,73,0.00,,---,0.00,VWS V14.01,2013-06-18 20:45:00,
2013-06-18 16:50:00,87.6,77.5,29.95,South,172,3.0,7.0,72,0.00,,---,0.00,VWS V14.01,2013-06-18 20:50:00,
2013-06-18 16:56:00,87.7,77.6,29.95,SSE,150,2.0,7.0,72,0.00,,---,0.00,VWS V14.01,2013-06-18 20:56:00,
2013-06-18 17:00:00,87.7,78.4,29.95,South,170,2.0,3.0,74,0.00,,---,0.00,VWS V14.01,2013-06-18 21:00:00,
2013-06-18 17:06:00,87.4,77.7,29.94,South,170,2.0,3.0,73,0.00,,---,0.00,VWS V14.01,2013-06-18 21:06:00,
2013-06-18 17:11:00,87.0,78.1,29.94,South,170,3.0,3.0,75,0.00,,---,0.00,VWS V14.01,2013-06-18 21:11:00,
2013-06-18 17:16:00,87.3,77.6,29.94,SSE,163,5.0,7.0,73,0.00,,---,0.00,VWS V14.01,2013-06-18 21:16:00,
2013-06-18 17:21:00,87.9,77.8,29.94,SSW,193,4.0,7.0,72,0.00,,---,0.00,VWS V14.01,2013-06-18 21:21:00,
2013-06-18 17:26:00,88.4,77.8,29.94,SW,232,0.0,7.0,71,0.00,,---,0.00,VWS V14.01,2013-06-18 21:26:00,
2013-06-18 17:30:00,88.5,77.5,29.94,SW,217,2.0,7.0,70,0.00,,---,0.00,VWS V14.01,2013-06-18 21:30:00,
2013-06-18 17:31:00,88.4,77.4,29.94,SW,217,2.0,2.0,70,0.00,,---,0.00,VWS V14.01,2013-06-18 21:31:00,
2013-06-18 17:36:00,88.3,78.6,29.94,SW,217,0.0,3.0,73,0.00,,---,0.00,VWS V14.01,2013-06-18 21:36:00,
2013-06-18 17:41:00,88.5,77.5,29.93,SW,233,0.0,6.0,70,0.00,,---,0.00,VWS V14.01,2013-06-18 21:41:00,
2013-06-18 17:46:00,89.0,77.5,29.93,SW,232,0.0,6.0,69,0.00,,---,0.00,VWS V14.01,2013-06-18 21:46:00,
2013-06-18 17:51:00,88.7,77.7,29.94,SW,225,3.0,6.0,70,0.00,,---,0.00,VWS V14.01,2013-06-18 21:51:00,
2013-06-18 17:56:00,88.7,77.7,29.93,SW,223,3.0,6.0,70,0.00,,---,0.00,VWS V14.01,2013-06-18 21:56:00,
2013-06-18 18:00:00,89.0,77.5,29.93,SW,223,1.0,6.0,69,0.00,,---,0.00,VWS V14.01,2013-06-18 22:00:00,
2013-06-18 18:01:00,89.2,77.7,29.93,SW,223,0.0,1.0,69,0.00,,---,0.00,VWS V14.01,2013-06-18 22:01:00,
2013-06-18 18:06:00,89.5,78.0,29.93,SW,223,2.0,3.0,69,0.00,,---,0.00,VWS V14.01,2013-06-18 22:06:00,
2013-06-18 18:11:00,89.7,75.9,29.93,West,261,4.0,7.0,64,0.00,,---,0.00,VWS V14.01,2013-06-18 22:11:00,
2013-06-18 18:16:00,90.2,74.9,29.93,West,281,5.0,8.0,61,0.00,,---,0.00,VWS V14.01,2013-06-18 22:16:00,
2013-06-18 18:21:00,90.2,74.4,29.93,West,267,6.0,9.0,60,0.00,,---,0.00,VWS V14.01,2013-06-18 22:21:00,
2013-06-18 18:27:00,90.2,74.9,29.93,WNW,290,6.0,9.0,61,0.00,,---,0.00,VWS V14.01,2013-06-18 22:27:00,
2013-06-18 18:30:00,90.1,75.3,29.93,WNW,286,3.0,9.0,62,0.00,,---,0.00,VWS V14.01,2013-06-18 22:30:00,
2013-06-18 18:32:00,90.1,74.8,29.93,West,274,6.0,7.0,61,0.00,,---,0.00,VWS V14.01,2013-06-18 22:32:00,
2013-06-18 18:37:00,90.0,74.8,29.93,WNW,292,5.0,8.0,61,0.00,,---,0.00,VWS V14.01,2013-06-18 22:37:00,
2013-06-18 18:42:00,89.8,74.1,29.93,WNW,286,3.0,10.0,60,0.00,,---,0.00,VWS V14.01,2013-06-18 22:42:00,
2013-06-18 18:47:00,89.9,74.7,29.93,West,275,4.0,10.0,61,0.00,,---,0.00,VWS V14.01,2013-06-18 22:47:00,
2013-06-18 18:52:00,89.7,74.5,29.93,WNW,291,5.0,10.0,61,0.00,,---,0.00,VWS V14.01,2013-06-18 22:52:00,
2013-06-18 18:57:00,89.6,74.9,29.93,WNW,296,4.0,10.0,62,0.00,,---,0.00,VWS V14.01,2013-06-18 22:57:00,
2013-06-18 19:00:00,89.6,74.9,29.93,WNW,289,7.0,10.0,62,0.00,,---,0.00,VWS V14.01,2013-06-18 23:00:00,
2013-06-18 19:02:00,89.5,74.3,29.93,WNW,294,5.0,7.0,61,0.00,,---,0.00,VWS V14.01,2013-06-18 23:02:00,
2013-06-18 19:07:00,89.3,74.6,29.93,West,276,4.0,7.0,62,0.00,,---,0.00,VWS V14.01,2013-06-18 23:07:00,
2013-06-18 19:12:00,89.2,74.5,29.93,West,274,5.0,7.0,62,0.00,,---,0.00,VWS V14.01,2013-06-18 23:12:00,
2013-06-18 19:17:00,89.0,74.3,29.93,West,276,6.0,8.0,62,0.00,,---,0.00,VWS V14.01,2013-06-18 23:17:00,
2013-06-18 19:22:00,88.9,74.2,29.93,West,281,3.0,8.0,62,0.00,,---,0.00,VWS V14.01,2013-06-18 23:22:00,
2013-06-18 19:27:00,88.8,74.6,29.94,WNW,296,2.0,8.0,63,0.00,,---,0.00,VWS V14.01,2013-06-18 23:27:00,
2013-06-18 19:30:00,88.7,74.5,29.94,WNW,300,1.0,8.0,63,0.00,,---,0.00,VWS V14.01,2013-06-18 23:30:00,
2013-06-18 19:32:00,88.5,74.8,29.94,WNW,300,4.0,5.0,64,0.00,,---,0.00,VWS V14.01,2013-06-18 23:32:00,
2013-06-18 19:37:00,88.2,75.0,29.94,NW,317,5.0,5.0,65,0.00,,---,0.00,VWS V14.01,2013-06-18 23:37:00,
2013-06-18 19:42:00,88.0,74.8,29.94,WNW,288,3.0,7.0,65,0.00,,---,0.00,VWS V14.01,2013-06-18 23:42:00,
2013-06-18 19:47:00,87.7,74.5,29.94,WNW,292,3.0,7.0,65,0.00,,---,0.00,VWS V14.01,2013-06-18 23:47:00,
2013-06-18 19:52:00,87.5,74.8,29.94,WNW,286,1.0,7.0,66,0.00,,---,0.00,VWS V14.01,2013-06-18 23:52:00,
2013-06-18 19:57:00,87.3,75.0,29.94,WNW,286,3.0,7.0,67,0.00,,---,0.00,VWS V14.01,2013-06-18 23:57:00,
2013-06-18 20:00:00,87.1,74.8,29.94,WNW,286,2.0,7.0,67,0.00,,---,0.00,VWS V14.01,2013-06-19 00:00:00,
2013-06-18 20:02:00,87.0,74.7,29.94,WNW,288,2.0,5.0,67,0.00,,---,0.00,VWS V14.01,2013-06-19 00:02:00,
2013-06-18 20:07:00,86.6,74.3,29.93,WNW,290,4.0,5.0,67,0.00,,---,0.00,VWS V14.01,2013-06-19 00:07:00,
2013-06-18 20:12:00,86.1,74.8,29.94,WNW,290,3.0,5.0,69,0.00,,---,0.00,VWS V14.01,2013-06-19 00:12:00,
2013-06-18 20:17:00,85.6,74.3,29.94,WNW,290,3.0,5.0,69,0.00,,---,0.00,VWS V14.01,2013-06-19 00:17:00,
2013-06-18 20:22:00,85.3,74.4,29.94,WNW,290,3.0,5.0,70,0.00,,---,0.00,VWS V14.01,2013-06-19 00:22:00,
2013-06-18 20:27:00,85.0,74.1,29.94,WNW,290,1.0,5.0,70,0.00,,---,0.00,VWS V14.01,2013-06-19 00:27:00,
2013-06-18 20:30:00,84.9,74.4,29.94,WNW,290,0.0,5.0,71,0.00,,---,0.00,VWS V14.01,2013-06-19 00:30:00,
2013-06-18 20:32:00,84.8,74.4,29.94,WNW,290,2.0,3.0,71,0.00,,---,0.00,VWS V14.01,2013-06-19 00:32:00,
2013-06-18 20:37:00,84.4,74.4,29.94,WNW,290,3.0,3.0,72,0.00,,---,0.00,VWS V14.01,2013-06-19 00:37:00,
2013-06-18 20:43:00,84.1,74.5,29.95,WNW,290,1.0,3.0,73,0.00,,---,0.00,VWS V14.01,2013-06-19 00:43:00,
2013-06-18 20:49:00,83.9,74.7,29.95,WNW,290,1.0,1.0,74,0.00,,---,0.00,VWS V14.01,2013-06-19 00:49:00,
2013-06-18 20:54:00,83.8,75.0,29.96,WNW,290,3.0,4.0,75,0.00,,---,0.00,VWS V14.01,2013-06-19 00:54:00,
2013-06-18 20:59:00,83.6,74.8,29.96,WNW,290,1.0,4.0,75,0.00,,---,0.00,VWS V14.01,2013-06-19 00:59:00,
2013-06-18 21:00:00,83.6,74.8,29.96,WNW,290,2.0,4.0,75,0.00,,---,0.00,VWS V14.01,2013-06-19 01:00:00,
2013-06-18 21:04:00,83.5,74.8,29.97,WNW,290,1.0,2.0,75,0.00,,---,0.00,VWS V14.01,2013-06-19 01:04:00,
2013-06-18 21:09:00,83.3,74.9,29.97,WNW,290,1.0,2.0,76,0.00,,---,0.00,VWS V14.01,2013-06-19 01:09:00,
2013-06-18 21:14:00,83.0,75.1,29.97,WNW,290,0.0,2.0,77,0.00,,---,0.00,VWS V14.01,2013-06-19 01:14:00,
2013-06-18 21:19:00,82.9,74.9,29.97,WNW,290,2.0,3.0,77,0.00,,---,0.00,VWS V14.01,2013-06-19 01:19:00,
2013-06-18 21:25:00,82.7,74.8,29.97,WNW,290,1.0,3.0,77,0.00,,---,0.00,VWS V14.01,2013-06-19 01:25:00,
2013-06-18 21:30:00,82.7,74.8,29.97,WNW,290,0.0,4.0,77,0.00,,---,0.00,VWS V14.01,2013-06-19 01:30:00,
2013-06-18 21:35:00,82.5,74.9,29.97,WNW,290,0.0,1.0,78,0.00,,---,0.00,VWS V14.01,2013-06-19 01:35:00,
2013-06-18 21:40:00,82.1,74.9,29.97,WNW,290,0.0,1.0,79,0.00,,---,0.00,VWS V14.01,2013-06-19 01:40:00,
2013-06-18 21:45:00,81.8,75.0,29.97,WNW,290,0.0,1.0,80,0.00,,---,0.00,VWS V14.01,2013-06-19 01:45:00,
2013-06-18 21:50:00,81.5,74.7,29.98,WNW,290,0.0,3.0,80,0.00,,---,0.00,VWS V14.01,2013-06-19 01:50:00,
2013-06-18 21:57:00,81.5,75.1,29.97,WNW,290,0.0,3.0,81,0.00,,---,0.00,VWS V14.01,2013-06-19 01:57:00,
2013-06-18 22:00:00,81.3,74.9,29.98,WNW,290,0.0,3.0,81,0.00,,---,0.00,VWS V14.01,2013-06-19 02:00:00,
2013-06-18 22:02:00,81.2,74.8,29.98,WNW,290,0.0,0.0,81,0.00,,---,0.00,VWS V14.01,2013-06-19 02:02:00,
2013-06-18 22:07:00,80.8,74.8,29.98,WNW,290,0.0,1.0,82,0.00,,---,0.00,VWS V14.01,2013-06-19 02:07:00,
2013-06-18 22:12:00,80.6,75.0,29.98,WNW,290,0.0,1.0,83,0.00,,---,0.00,VWS V14.01,2013-06-19 02:12:00,
2013-06-18 22:17:00,80.2,74.9,29.98,WNW,290,0.0,1.0,84,0.00,,---,0.00,VWS V14.01,2013-06-19 02:17:00,
2013-06-18 22:22:00,79.9,74.6,29.98,WNW,290,0.0,1.0,84,0.00,,---,0.00,VWS V14.01,2013-06-19 02:22:00,
2013-06-18 22:27:00,79.6,74.7,29.98,WNW,290,0.0,1.0,85,0.00,,---,0.00,VWS V14.01,2013-06-19 02:27:00,
2013-06-18 22:30:00,79.5,74.6,29.99,WNW,290,0.0,1.0,85,0.00,,---,0.00,VWS V14.01,2013-06-19 02:30:00,
2013-06-18 22:32:00,79.4,74.5,29.98,WNW,290,0.0,0.0,85,0.00,,---,0.00,VWS V14.01,2013-06-19 02:32:00,
2013-06-18 22:37:00,79.1,74.6,29.98,WNW,290,0.0,1.0,86,0.00,,---,0.00,VWS V14.01,2013-06-19 02:37:00,
2013-06-18 22:42:00,78.9,74.4,29.99,WNW,290,0.0,1.0,86,0.00,,---,0.00,VWS V14.01,2013-06-19 02:42:00,
2013-06-18 22:47:00,78.7,74.5,29.99,WNW,290,0.0,1.0,87,0.00,,---,0.00,VWS V14.01,2013-06-19 02:47:00,
2013-06-18 22:53:00,78.4,74.2,29.99,WNW,290,0.0,1.0,87,0.00,,---,0.00,VWS V14.01,2013-06-19 02:53:00,
2013-06-18 22:58:00,78.2,74.4,29.99,WNW,290,0.0,1.0,88,0.00,,---,0.00,VWS V14.01,2013-06-19 02:58:00,
2013-06-18 23:00:00,78.1,74.3,29.99,WNW,290,0.0,1.0,88,0.00,,---,0.00,VWS V14.01,2013-06-19 03:00:00,
2013-06-18 23:03:00,77.9,74.4,29.99,WNW,290,0.0,0.0,89,0.00,,---,0.00,VWS V14.01,2013-06-19 03:03:00,
2013-06-18 23:08:00,77.6,74.1,29.99,WNW,290,0.0,0.0,89,0.00,,---,0.00,VWS V14.01,2013-06-19 03:08:00,
2013-06-18 23:13:00,77.4,73.9,29.99,WNW,290,0.0,0.0,89,0.00,,---,0.00,VWS V14.01,2013-06-19 03:13:00,
2013-06-18 23:18:00,77.3,74.1,30.00,WNW,290,0.0,0.0,90,0.00,,---,0.00,VWS V14.01,2013-06-19 03:18:00,
2013-06-18 23:23:00,77.2,74.0,29.99,WNW,290,0.0,0.0,90,0.00,,---,0.00,VWS V14.01,2013-06-19 03:23:00,
2013-06-18 23:28:00,77.0,74.2,29.99,WNW,290,0.0,0.0,91,0.00,,---,0.00,VWS V14.01,2013-06-19 03:28:00,
2013-06-18 23:30:00,77.0,74.2,29.99,WNW,290,0.0,0.0,91,0.00,,---,0.00,VWS V14.01,2013-06-19 03:30:00,
2013-06-18 23:33:00,76.9,74.1,29.99,WNW,290,0.0,0.0,91,0.00,,---,0.00,VWS V14.01,2013-06-19 03:33:00,
2013-06-18 23:38:00,76.7,74.2,29.99,WNW,290,0.0,0.0,92,0.00,,---,0.00,VWS V14.01,2013-06-19 03:38:00,
2013-06-18 23:43:00,76.5,73.7,29.99,WNW,290,0.0,0.0,91,0.00,,---,0.00,VWS V14.01,2013-06-19 03:43:00,
2013-06-18 23:48:00,76.4,73.6,29.99,WNW,290,0.0,0.0,91,0.00,,---,0.00,VWS V14.01,2013-06-19 03:48:00,
2013-06-18 23:53:00,76.2,73.7,29.99,WNW,290,0.0,0.0,92,0.00,,---,0.00,VWS V14.01,2013-06-19 03:53:00,
2013-06-18 23:58:00,76.1,73.9,29.99,WNW,290,0.0,0.0,93,0.00,,---,0.00,VWS V14.01,2013-06-19 03:58:00,